• Join FlightAware (Why Join?)
  • Login
  • US Flag 
12:51AM EDT


 

Airport Tracker/Info


-or-


 

Live Flight TrackerFlight Track Log ✈ EJA396 ✈ 03-May-2013 ✈ KAPF - KOMA

Flight Track Log - Related Links

Times and Time Zones

All times are in EDT time to prevent confusion due to time zone crossing. See the EJA396 flight status page for this flight to view local times or setup timezone preferences in your user account.

Time Position Orientation Groundspeed Altitude Reporting Facility
EDT Latitude Longitude Course Direction KTS MPH feet Rate Location/Type
08:41AM 26.2706 -81.7356 336° Northwest 254 292 7,100  Level Miami Center
08:42AM 26.2822 -81.8217 279° West 251 289 10,700 3,300 Climbing Miami Center
08:43AM 26.2847 -81.9331 271° West 297 342 13,800 2,880 Climbing Miami Center
08:44AM 26.1768 -82.3833 North  Level FlightAware Approximate
08:44AM 26.2892 -82.0397 273° West 323 372 16,500  Level Miami Center
08:45AM 26.2921 -82.4286 340° North  Level FlightAware Approximate
08:45AM 26.2958 -82.1464 274° West 338 389 19,200  Level Miami Center
08:46AM 26.4063 -82.4781 336° Northwest  Level FlightAware Approximate
08:46AM 26.3022 -82.2581 274° West 356 410 21,600  Level Miami Center
08:47AM 26.3103 -82.3742 274° West 369 425 23,700 2,040 Climbing Miami Center
08:48AM 26.3669 -82.4764 302° West 369 425 25,700 1,980 Climbing Miami Center
08:49AM 26.4697 -82.5208 339° North 362 417 27,700 2,100 Climbing Miami Center
08:50AM 26.5767 -82.5631 341° North 383 441 29,900 2,160 Climbing Miami Center
08:51AM 26.6811 -82.6075 339° North 383 441 32,100 1,800 Climbing Miami Center
08:52AM 26.7839 -82.6475 341° North 388 447 33,500 900 Climbing Miami Center
08:53AM 26.8908 -82.6900 340° North 393 452 34,000 240 Climbing Miami Center
08:54AM 27.0058 -82.7378 340° North 411 473 34,000  Level Miami Center
08:55AM 27.1250 -82.7833 341° North 432 497 34,000 480 Level Miami Center
08:56AM 27.2417 -82.8336 339° North 443 510 35,000 960 Climbing Miami Center
08:57AM 27.3589 -82.8794 341° North 443 510 36,000 960 Climbing Miami Center
08:58AM 27.4736 -82.9300 339° North 438 504 37,000 960 Climbing Miami Center
08:59AM 27.5864 -82.9758 340° North 438 504 38,000 900 Climbing Miami Center
09:00AM 27.7031 -83.0242 340° North 438 504 38,900 540 Climbing Miami Center
09:02AM 27.9556 -83.1275 340° North 427 491 40,000 300 Climbing Jacksonville Center
09:03AM 28.0725 -83.1608 346° North 427 491 40,000  Level Jacksonville Center
09:04AM 28.1914 -83.1847 350° North 427 491 40,000  Level Jacksonville Center
09:05AM 28.3122 -83.2156 347° North 432 497 40,000  Level Jacksonville Center
09:06AM 28.4247 -83.2678 338° Northwest 427 491 40,000  Level Jacksonville Center
09:07AM 28.5311 -83.3250 335° Northwest 427 491 40,000  Level Jacksonville Center
09:08AM 28.6394 -83.3822 335° Northwest 427 491 40,000  Level Jacksonville Center
09:09AM 28.7414 -83.4539 328° Northwest 427 491 40,000  Level Jacksonville Center
09:10AM 28.8411 -83.5325 325° Northwest 432 497 40,000  Level Jacksonville Center
09:11AM 28.9389 -83.6044 327° Northwest 432 497 40,000  Level Jacksonville Center
09:12AM 29.0386 -83.6786 327° Northwest 432 497 40,000  Level Jacksonville Center
09:13AM 29.1406 -83.7556 327° Northwest 432 497 40,000  Level Jacksonville Center
09:14AM 29.2400 -83.8325 326° Northwest 432 497 40,000  Level Jacksonville Center
09:15AM 29.3397 -83.9050 328° Northwest 432 497 40,000  Level Jacksonville Center
09:16AM 29.4414 -83.9825 326° Northwest 432 497 40,000  Level Jacksonville Center
09:17AM 29.5408 -84.0575 327° Northwest 432 497 40,000  Level Jacksonville Center
09:18AM 29.6425 -84.1353 326° Northwest 432 497 40,000  Level Jacksonville Center
09:19AM 29.7397 -84.2106 326° Northwest 432 497 40,000  Level Jacksonville Center
09:20AM 29.8497 -84.2933 327° Northwest 432 497 40,000  Level Jacksonville Center
09:21AM 29.9511 -84.3692 327° Northwest 432 497 40,000  Level Jacksonville Center
09:22AM 30.0461 -84.4450 325° Northwest 432 497 40,000  Level Jacksonville Center
09:23AM 30.1456 -84.5236 326° Northwest 427 491 40,000  Level Jacksonville Center
09:24AM 30.2467 -84.5975 328° Northwest 427 491 40,000  Level Jacksonville Center
09:25AM 30.3378 -84.6689 326° Northwest 434 499 40,000  Level Jacksonville Center
09:26AM 30.4389 -84.7478 326° Northwest 434 499 40,000  Level Jacksonville Center
09:27AM 30.5381 -84.8219 327° Northwest 434 499 40,000  Level Jacksonville Center
09:28AM 30.6369 -84.9014 325° Northwest 434 499 40,000  Level Jacksonville Center
09:29AM 30.7358 -84.9783 326° Northwest 434 499 40,000  Level Jacksonville Center
09:30AM 30.8369 -85.0581 326° Northwest 434 499 40,000  Level Jacksonville Center
09:31AM 30.9358 -85.1353 326° Northwest 434 499 40,000  Level Jacksonville Center
09:32AM 31.0347 -85.2103 327° Northwest 434 499 40,000  Level Jacksonville Center
09:33AM 31.1333 -85.2906 325° Northwest 434 499 40,000  Level Jacksonville Center
09:36AM 31.3769 -85.4883 325° Northwest 426 490 40,000  Level Atlanta Center
09:37AM 31.4764 -85.5681 326° Northwest 426 490 40,000  Level Atlanta Center
09:38AM 31.5775 -85.6478 326° Northwest 431 496 40,000  Level Atlanta Center
09:39AM 31.6786 -85.7300 325° Northwest 436 502 40,000  Level Atlanta Center
09:40AM 31.7900 -85.8225 325° Northwest 444 511 40,000  Level Atlanta Center
09:41AM 31.8911 -85.9003 327° Northwest 444 511 40,000  Level Atlanta Center
09:42AM 31.9964 -85.9808 327° Northwest 444 511 40,000  Level Atlanta Center
09:43AM 32.0972 -86.0664 324° Northwest 444 511 40,000  Level Atlanta Center
09:44AM 32.2003 -86.1497 326° Northwest 449 517 40,000  Level Atlanta Center
09:45AM 32.2992 -86.2308 325° Northwest 443 510 40,000  Level Atlanta Center
09:46AM 32.4000 -86.3119 326° Northwest 438 504 40,000  Level Atlanta Center
09:47AM 32.4983 -86.3981 324° Northwest 449 517 40,000  Level Atlanta Center
09:48AM 32.6053 -86.4800 327° Northwest 449 517 40,000  Level Atlanta Center
09:49AM 32.7081 -86.5667 325° Northwest 449 517 40,000  Level Atlanta Center
09:50AM 32.8086 -86.6486 326° Northwest 449 517 40,000  Level Atlanta Center
09:51AM 32.9089 -86.7333 325° Northwest 449 517 40,000  Level Atlanta Center
09:52AM 33.0117 -86.8158 326° Northwest 449 517 40,000  Level Atlanta Center
09:53AM 33.1139 -86.9058 324° Northwest 449 517 40,000  Level Atlanta Center
09:54AM 33.2183 -86.9886 326° Northwest 449 517 40,000  Level Atlanta Center
09:55AM 33.3083 -87.0664 324° Northwest 449 517 40,000  Level Atlanta Center
09:56AM 33.4106 -87.1519 325° Northwest 449 517 40,000  Level Atlanta Center
09:57AM 33.5106 -87.2378 324° Northwest 449 517 40,000  Level Atlanta Center
09:59AM 33.7417 -87.4369 324° Northwest 469 540 40,000  Level Memphis Center
10:00AM 33.8394 -87.5136 327° Northwest 469 540 40,000  Level Memphis Center
10:01AM 33.9417 -87.6031 324° Northwest 457 526 40,000  Level Memphis Center
10:02AM 34.0458 -87.6900 325° Northwest 456 525 40,000  Level Memphis Center
10:03AM 34.1478 -87.7772 325° Northwest 456 525 40,000  Level Memphis Center
10:04AM 34.2606 -87.8767 324° Northwest 456 525 40,000  Level Memphis Center
10:05AM 34.3644 -87.9669 324° Northwest 456 525 40,000  Level Memphis Center
10:06AM 34.4686 -88.0544 325° Northwest 459 528 40,000  Level Memphis Center
10:07AM 34.5744 -88.1475 324° Northwest 459 528 40,000  Level Memphis Center
10:08AM 34.6783 -88.2433 323° Northwest 464 534 40,000  Level Memphis Center
10:09AM 34.7822 -88.3342 324° Northwest 464 534 40,000  Level Memphis Center
10:10AM 34.8858 -88.4256 324° Northwest 469 540 40,000  Level Memphis Center
10:11AM 34.9956 -88.5142 327° Northwest 469 540 40,000  Level Memphis Center
10:12AM 35.0992 -88.6083 323° Northwest 463 533 40,000  Level Memphis Center
10:13AM 35.2092 -88.7053 324° Northwest 475 547 40,000  Level Memphis Center
10:14AM 35.3125 -88.7972 324° Northwest 475 547 40,000  Level Memphis Center
10:15AM 35.4200 -88.8947 324° Northwest 475 547 40,000  Level Memphis Center
10:16AM 35.5150 -88.9797 324° Northwest 475 547 40,000  Level Memphis Center
10:17AM 35.6264 -89.0800 324° Northwest 483 556 40,000  Level Memphis Center
10:18AM 35.7381 -89.1831 323° Northwest 477 549 40,000  Level Memphis Center
10:19AM 35.8433 -89.2814 323° Northwest 472 543 40,000  Level Memphis Center
10:20AM 35.9356 -89.3675 323° Northwest 472 543 40,000  Level Memphis Center
10:21AM 36.0447 -89.4661 324° Northwest 472 543 40,000  Level Memphis Center
10:22AM 36.1519 -89.5678 323° Northwest 472 543 40,000  Level Memphis Center
10:23AM 36.2589 -89.6672 323° Northwest 477 549 40,000  Level Memphis Center
10:24AM 36.3678 -89.7667 324° Northwest 483 556 40,000  Level Memphis Center
10:25AM 36.4767 -89.8667 324° Northwest 483 556 40,000  Level Memphis Center
10:26AM 36.5811 -89.9617 324° Northwest 483 556 40,000  Level Memphis Center
10:27AM 36.6897 -90.0619 323° Northwest 483 556 40,000  Level Memphis Center
10:29AM 36.9072 -90.2592 324° Northwest 480 552 40,000  Level Kansas City Center
10:30AM 37.0139 -90.3603 323° Northwest 481 554 40,000  Level Kansas City Center
10:31AM 37.1206 -90.4603 323° Northwest 479 551 40,000  Level Kansas City Center
10:32AM 37.2278 -90.5606 323° Northwest 479 551 40,000  Level Kansas City Center
10:33AM 37.3461 -90.6731 323° Northwest 480 552 40,000  Level Kansas City Center
10:34AM 37.4478 -90.7733 322° Northwest 483 556 40,000  Level Kansas City Center
10:35AM 37.5550 -90.8758 323° Northwest 482 555 40,000  Level Kansas City Center
10:36AM 37.6650 -90.9831 322° Northwest 483 556 40,000  Level Kansas City Center
10:37AM 37.7692 -91.0839 323° Northwest 484 557 40,000  Level Kansas City Center
10:38AM 37.8997 -91.2100 323° Northwest 489 563 40,000  Level Kansas City Center
10:39AM 38.0058 -91.3147 322° Northwest 488 562 40,000  Level Kansas City Center
10:40AM 38.1142 -91.4206 322° Northwest 488 562 40,000  Level Kansas City Center
10:41AM 38.2208 -91.5247 323° Northwest 486 559 40,000  Level Kansas City Center
10:42AM 38.3261 -91.6289 322° Northwest 483 556 40,000  Level Kansas City Center
10:43AM 38.4325 -91.7353 322° Northwest 485 558 40,000  Level Kansas City Center
10:44AM 38.5389 -91.8400 322° Northwest 484 557 40,000  Level Kansas City Center
10:45AM 38.6453 -91.9464 322° Northwest 484 557 40,000  Level Kansas City Center
10:46AM 38.7725 -92.0744 322° Northwest 484 557 40,000  Level Kansas City Center
10:47AM 38.8786 -92.1822 322° Northwest 485 558 40,000  Level Kansas City Center
10:48AM 38.9842 -92.2883 322° Northwest 483 556 40,000  Level Kansas City Center
10:49AM 39.0906 -92.3961 322° Northwest 485 558 40,000  Level Kansas City Center
10:50AM 39.1969 -92.5014 323° Northwest 483 556 40,000  Level Kansas City Center
10:51AM 39.3139 -92.6194 322° Northwest 483 556 40,000  Level Kansas City Center
10:52AM 39.4189 -92.7264 322° Northwest 483 556 40,000  Level Kansas City Center
10:53AM 39.5250 -92.8358 322° Northwest 484 557 40,000  Level Kansas City Center
10:54AM 39.6306 -92.9464 321° Northwest 487 560 40,000  Level Kansas City Center
10:55AM 39.7350 -93.0531 322° Northwest 483 556 40,000  Level Kansas City Center
10:56AM 39.8442 -93.1708 320° Northwest 502 578 40,000  Level Kansas City Center
10:57AM 39.9497 -93.2797 322° Northwest 492 566 40,000  Level Kansas City Center
10:58AM 40.0742 -93.4133 321° Northwest 484 557 40,000 -660 Level Kansas City Center
10:59AM 40.1794 -93.5239 321° Northwest 486 559 38,700 -2,280 Descending Kansas City Center
11:00AM 40.2833 -93.6339 321° Northwest 483 556 35,400 -2,280 Descending Kansas City Center
11:01AM 40.3922 -93.7503 321° Northwest 496 571 34,000 -960 Descending Kansas City Center
11:02AM 40.4342 -93.7964 320° Northwest 500 575 34,000 -360 Level Minneapolis Center
11:03AM 40.5431 -93.9147 320° Northwest 507 583 33,500 -1,560 Descending Minneapolis Center
11:04AM 40.6183 -94.1086 297° West 498 573 30,800 -2,640 Descending Minneapolis Center
11:05AM 40.6450 -94.2836 281° West 490 564 28,100 -2,520 Descending Minneapolis Center
11:06AM 40.6692 -94.4194 283° West 484 557 25,700 -3,000 Descending Minneapolis Center
11:07AM 40.7003 -94.6083 282° West 455 524 22,000 -3,420 Descending Minneapolis Center
11:08AM 40.7239 -94.7611 282° West 433 498 18,700 -3,000 Descending Minneapolis Center
11:09AM 40.7575 -94.8661 293° West 388 447 17,000 -2,220 Descending Minneapolis Center
11:09AM 40.7647 -94.9067 283° West 380 437 16,600 -1,500 Descending Minneapolis Center
11:10AM 40.7731 -95.0603 274° West 389 448 14,900 -1,740 Descending Minneapolis Center
11:11AM 40.8228 -95.1600 303° West 353 406 13,000 -2,040 Descending Minneapolis Center
11:12AM 40.8886 -95.2492 314° West 326 375 10,900 -1,920 Descending Minneapolis Center
11:13AM 40.9339 -95.3292 307° West 271 312 9,200 -1,920 Descending Minneapolis Center
11:14AM 40.9819 -95.4142 307° West 257 296 7,100 -1,920 Descending Minneapolis Center
11:14AM 40.9831 -95.4264 277° West 277 319 6,800 -1,800 Descending Minneapolis Center
11:15AM 41.0244 -95.4836 314° West 243 280 5,300 -1,680 Descending Minneapolis Center
11:16AM 41.0250 -95.4964 273° West 260 299 5,100 -1,320 Descending Minneapolis Center
11:16AM 41.0650 -95.5561 312° West 246 283 4,000 -1,200 Descending Minneapolis Center
11:17AM 41.0669 -95.5675 283° West 251 289 3,900 -840 Descending Minneapolis Center
11:17AM 41.1128 -95.6389 310° West 227 261 3,000 -540 Descending Minneapolis Center
11:18AM 41.1481 -95.6983 308° West 210 242 2,900 -120 Descending Minneapolis Center
11:19AM 41.1764 -95.7450 309° West 203 234 2,800 -120 Descending Minneapolis Center
11:20AM 41.1886 -95.7631 312° West 214 246 2,800  Level Minneapolis Center
11:20AM 41.2092 -95.7964 309° West 183 211 2,800  Level Minneapolis Center
11:21AM 41.2225 -95.8158 312° West 203 234 2,800 -420 Level Minneapolis Center
11:21AM 41.2433 -95.8369 323° Northwest 142 163 2,400 -720 Descending Minneapolis Center
11:22AM 41.2533 -95.8431 335° Northwest 163 188 2,100 -660 Descending Minneapolis Center
11:22AM 41.2722 -95.8639 320° Northwest 103 119 1,700 -600 Descending Minneapolis Center
11:23AM 41.2783 -95.8678 334° Northwest 133 153 1,500 -540 Descending Minneapolis Center
11:24AM 41.2997 -95.8886 324° Northwest 114 131 1,000 -540 Descending Minneapolis Center